Latest Weather Observations for PORTABLE RFSNSW12

IDN60801

Issued at 7:33 pm EDT Tuesday 10 December 2019 (issued every 10 minutes, with the page automatically refreshed every 10 minutes)

About weather observations | Map of weather stations | Latest weather observations for NSW | Other Formats
Station Details ID: 250066 Name: PORTABLE RFSNSW12 Lat: -29.94 Lon: 152.73 Height: 196.0 m

Portable automatic weather stations (PAWS) are operated by other organisations, such as Fire and Emergency Services, and are included here by agreement. Portable stations may be deployed to a location for a short period and their location may be subject to change without notice. Wind observations from these stations are provided from heights of either three (3) or ten (10) metres above ground level (AGL).

Data from the previous 72 hours. | See also: Recent months for locations in New South Wales
Date/Time
EDT
Temp
°C
App
Temp
°C
Dew
Point
°C
Rel
Hum
%
Delta-T
°C
Wind Press
QNH
hPa
Press
MSL
hPa
Rain since
9am
mm
Dir  Spd
km/h
Gust
km/h
Spd
kts
Gust
kts
10/07:20pm 29.7 32.5 19.7 55 6.6 SE 4 6 2 3 - - 0.0
10/07:10pm 30.0 32.4 19.6 53 6.9 E 6 7 3 4 - - 0.0
10/07:00pm 30.4 33.1 19.4 51 7.2 ESE 4 7 2 4 - - 0.0
10/06:50pm 30.5 33.8 20.0 53 7.0 NNE 2 4 1 2 - - 0.0
10/06:40pm 30.6 33.6 20.0 53 7.0 N 4 7 2 4 - - 0.0
10/06:30pm 30.9 33.9 20.1 52 7.2 N 4 6 2 3 - - 0.0
10/06:20pm 31.3 33.9 20.1 51 7.5 E 6 7 3 4 - - 0.0
10/06:10pm 31.9 34.5 20.0 49 7.9 ENE 6 7 3 4 - - 0.0
10/06:00pm 32.1 33.9 19.6 47 8.3 E 9 11 5 6 - - 0.0
10/05:50pm 32.9 34.7 18.8 43 9.3 E 7 11 4 6 - - 0.0
10/05:40pm 33.3 35.0 19.3 43 9.3 ENE 9 9 5 5 - - 0.0
10/05:30pm 33.9 35.3 18.7 40 10.0 ENE 9 13 5 7 - - 0.0
10/05:20pm 34.0 35.9 18.5 40 10.2 NE 6 11 3 6 - - 0.0
10/05:10pm 34.0 35.7 18.1 39 10.4 ENE 6 7 3 4 - - 0.0
10/05:00pm 34.4 36.0 17.8 37 10.8 NNE 6 7 3 4 - - 0.0
10/04:50pm 34.9 36.4 17.6 35 11.2 NNE 6 7 3 4 - - 0.0
10/04:40pm 35.2 36.4 16.9 33 11.8 ENE 6 7 3 4 - - 0.0
10/04:30pm 35.6 36.5 16.2 31 12.4 NE 6 7 3 4 - - 0.0
10/04:20pm 35.9 36.7 15.8 30 12.8 NE 6 7 3 4 - - 0.0
10/04:10pm 36.1 36.8 15.6 29 13.0 NNE 6 7 3 4 - - 0.0
10/04:00pm 36.2 37.1 16.1 30 12.9 ENE 6 9 3 5 - - 0.0
10/03:50pm 36.5 37.2 16.1 29 13.1 E 7 11 4 6 - - 0.0
10/03:40pm 36.2 36.9 16.1 30 12.9 ESE 7 9 4 5 - - 0.0
10/03:30pm 35.9 36.8 16.0 30 12.7 ENE 6 7 3 4 - - 0.0
10/03:20pm 35.7 36.4 16.0 31 12.6 - 7 9 4 5 - - 0.0
10/03:10pm 35.8 36.2 15.2 29 13.0 ENE 7 11 4 6 - - 0.0
10/03:00pm 35.7 36.4 16.0 31 12.6 E 7 9 4 5 - - 0.0
10/02:50pm 35.8 36.7 16.5 31 12.4 ENE 7 11 4 6 - - 0.0
10/02:40pm 36.1 36.8 16.2 30 12.7 E 7 9 4 5 - - 0.0
10/02:30pm 37.1 38.0 17.5 31 12.8 E 9 13 5 7 - - 0.0
10/02:20pm 37.7 38.1 16.4 28 13.7 E 9 13 5 7 - - 0.0
10/02:10pm 37.7 38.5 17.2 30 13.4 ENE 9 13 5 7 - - 0.0
10/02:00pm 37.9 38.8 17.5 30 13.4 E 9 11 5 6 - - 0.0
10/01:50pm 37.7 38.8 17.9 31 13.0 ENE 9 13 5 7 - - 0.0
10/01:40pm 37.7 39.2 18.0 31 13.0 E 7 11 4 6 - - 0.0
10/01:30pm 36.9 38.4 18.0 33 12.4 ENE 7 13 4 7 - - 0.0
10/01:20pm 37.2 38.6 17.8 32 12.7 ENE 7 11 4 6 - - 0.0
10/01:10pm 37.5 39.5 19.1 34 12.3 NE 7 11 4 6 - - 0.0
10/01:00pm 37.1 38.7 18.3 33 12.4 NE 7 9 4 5 - - 0.0
10/12:50pm 36.8 38.7 18.9 35 11.9 NNE 7 9 4 5 - - 0.0
10/12:40pm 36.5 38.8 19.4 36 11.4 NE 6 9 3 5 - - 0.0
10/12:30pm 36.5 38.9 19.6 37 11.3 NE 6 9 3 5 - - 0.0
10/12:20pm 35.7 37.9 19.7 39 10.7 ENE 7 9 4 5 - - 0.0
10/12:10pm 35.4 37.5 19.3 38 10.7 NE 7 11 4 6 - - 0.0
10/12:00pm 35.7 37.9 19.1 37 11.0 NNW 6 7 3 4 - - 0.0
10/11:50am 34.7 36.9 19.2 40 10.3 NNE 6 9 3 5 - - 0.0
10/11:40am 34.0 36.2 19.5 42 9.6 E 7 11 4 6 - - 0.0
10/11:30am 33.7 36.0 19.4 43 9.5 ENE 6 7 3 4 - - 0.0
10/11:20am 33.4 35.6 19.6 44 9.2 ENE 7 11 4 6 - - 0.0
10/11:10am 32.9 35.3 20.1 47 8.6 NE 7 13 4 7 - - 0.0
10/11:00am 32.6 35.2 20.1 47 8.4 E 6 11 3 6 - - 0.0
10/10:50am 32.4 35.1 20.2 48 8.2 N 6 7 3 4 - - 0.0
10/10:40am 32.0 34.7 20.2 49 7.9 NW 6 7 3 4 - - 0.0
10/10:30am 31.7 34.2 19.8 49 7.9 NNE 6 7 3 4 - - 0.0
10/10:20am 31.3 33.9 20.1 51 7.5 N 6 7 3 4 - - 0.0
10/10:10am 30.7 33.3 20.0 52 7.1 NNE 6 7 3 4 - - 0.0
10/10:00am 30.4 33.0 20.0 53 6.9 NNW 6 7 3 4 - - 0.0
10/09:50am 30.0 32.7 20.3 56 6.5 N 6 7 3 4 - - 0.0
10/09:40am 29.8 32.5 20.2 56 6.4 N 6 7 3 4 - - 0.0
10/09:30am 29.4 32.1 20.2 57 6.1 NNE 6 6 3 3 - - 0.0
10/09:20am 29.2 32.2 20.1 58 6.0 NNE 4 7 2 4 - - 0.0
10/09:10am 28.6 31.4 20.4 61 5.4 NNE 6 7 3 4 - - 0.0
10/09:00am 28.3 31.2 19.9 60 5.5 NNW 4 7 2 4 - - 0.0
10/08:50am 27.9 30.9 20.1 62 5.1 NNE 4 6 2 3 - - 0.0
10/08:40am 27.2 30.4 20.4 66 4.5 NNE 4 7 2 4 - - 0.0
10/08:30am 26.8 30.1 20.8 69 4.0 E 4 6 2 3 - - 0.0
10/08:20am 26.3 29.5 20.5 70 3.8 ENE 4 6 2 3 - - 0.0
10/08:10am 25.7 29.2 20.4 72 3.5 N 2 4 1 2 - - 0.0
10/08:00am 25.1 28.6 20.4 75 3.1 N 2 4 1 2 - - 0.0
10/07:50am 24.5 28.1 20.5 78 2.6 WNW 2 4 1 2 - - 0.0
10/07:40am 24.3 27.8 20.4 79 2.6 WNW 2 4 1 2 - - 0.0
10/07:30am 23.8 27.0 20.5 82 2.2 WNW 4 4 2 2 - - 0.0
10/07:20am 23.5 27.1 20.6 84 1.9 NNE 2 4 1 2 - - 0.0
10/07:10am 23.3 26.9 20.5 84 1.8 NNE 2 4 1 2 - - 0.0
10/07:00am 23.0 27.0 20.5 86 1.6 CALM 0 2 0 1 - - 0.0
10/06:50am 22.7 26.2 20.4 87 1.5 ENE 2 4 1 2 - - 0.0
10/06:40am 22.3 26.3 20.5 89 1.2 CALM 0 0 0 0 - - 0.0
10/06:30am 22.1 26.0 20.3 89 1.2 CALM 0 0 0 0 - - 0.0
10/06:20am 22.0 25.9 20.4 91 1.0 CALM 0 0 0 0 - - 0.0
10/06:10am 22.1 26.1 20.5 91 1.0 CALM 0 0 0 0 - - 0.0
10/06:00am 22.1 26.1 20.5 91 1.0 CALM 0 0 0 0 - - 0.0
10/05:50am 22.2 26.1 20.4 89 1.2 CALM 0 0 0 0 - - 0.0
10/05:40am 22.2 26.1 20.4 89 1.2 CALM 0 0 0 0 - - 0.0
10/05:30am 22.2 26.1 20.3 89 1.2 CALM 0 2 0 1 - - 0.0
10/05:20am 22.3 26.2 20.4 89 1.2 CALM 0 0 0 0 - - 0.0
10/05:10am 22.3 26.2 20.3 88 1.3 CALM 0 4 0 2 - - 0.0
10/05:00am 22.2 26.1 20.3 89 1.2 CALM 0 0 0 0 - - 0.0
10/04:50am 22.1 26.0 20.3 89 1.2 CALM 0 0 0 0 - - 0.0
10/04:40am 22.2 26.1 20.4 89 1.2 CALM 0 0 0 0 - - 0.0
10/04:30am 22.2 26.1 20.3 89 1.2 CALM 0 0 0 0 - - 0.0
10/04:20am 22.3 26.2 20.3 88 1.3 CALM 0 0 0 0 - - 0.0
10/04:10am 22.3 26.2 20.3 88 1.3 CALM 0 0 0 0 - - 0.0
10/04:00am 22.3 26.2 20.3 88 1.3 CALM 0 0 0 0 - - 0.0
10/03:50am 22.3 26.2 20.3 88 1.3 CALM 0 0 0 0 - - 0.0
10/03:40am 22.3 26.1 20.2 88 1.4 CALM 0 0 0 0 - - 0.0
10/03:30am 22.3 26.1 20.2 88 1.4 CALM 0 0 0 0 - - 0.0
10/03:20am 22.4 26.2 20.2 87 1.4 CALM 0 0 0 0 - - 0.0
10/03:10am 22.4 26.2 20.2 87 1.4 CALM 0 0 0 0 - - 0.0
10/03:00am 22.4 26.2 20.2 87 1.4 CALM 0 0 0 0 - - 0.0
10/02:50am 22.4 26.2 20.2 87 1.4 CALM 0 0 0 0 - - 0.0
10/02:40am 22.4 26.2 20.2 87 1.4 CALM 0 0 0 0 - - 0.0
10/02:30am 22.4 26.2 20.2 87 1.4 CALM 0 0 0 0 - - 0.0
10/02:20am 22.4 26.2 20.1 87 1.5 CALM 0 0 0 0 - - 0.0
10/02:10am 22.3 26.1 20.1 87 1.4 CALM 0 0 0 0 - - 0.0
10/02:00am 22.3 26.1 20.2 88 1.4 CALM 0 0 0 0 - - 0.0
10/01:50am 22.4 26.2 20.2 87 1.4 CALM 0 0 0 0 - - 0.0
10/01:40am 22.4 26.2 20.2 87 1.4 CALM 0 0 0 0 - - 0.0
10/01:30am 22.4 26.2 20.1 87 1.5 CALM 0 0 0 0 - - 0.0
10/01:20am 22.4 26.2 20.1 87 1.5 CALM 0 0 0 0 - - 0.0
10/01:10am 22.4 26.2 20.2 87 1.4 CALM 0 0 0 0 - - 0.0
10/01:00am 22.4 26.2 20.1 87 1.5 CALM 0 0 0 0 - - 0.0
10/12:50am 22.4 26.2 20.2 87 1.4 CALM 0 0 0 0 - - 0.0
10/12:40am 22.3 26.1 20.1 87 1.4 CALM 0 0 0 0 - - 0.0
10/12:30am 22.3 26.1 20.1 87 1.4 CALM 0 0 0 0 - - 0.0
10/12:20am 22.3 26.1 20.2 88 1.4 CALM 0 0 0 0 - - 0.0
10/12:10am 22.3 26.1 20.2 88 1.4 CALM 0 0 0 0 - - 0.0
10/12:00am 22.2 25.6 20.1 88 1.4 W 2 2 1 1 - - 0.0
 
Date/Time
EDT
Temp
°C
App
Temp
°C
Dew
Point
°C
Rel
Hum
%
Delta-T
°C
Wind Press
QNH
hPa
Press
MSL
hPa
Rain since
9am
mm
Dir  Spd
km/h
Gust
km/h
Spd
kts
Gust
kts
09/11:50pm 22.2 26.0 20.2 88 1.3 CALM 0 2 0 1 - - 0.0
09/11:40pm 22.2 25.2 20.1 88 1.4 E 4 6 2 3 - - 0.0
09/11:30pm 22.2 25.2 20.1 88 1.4 ENE 4 6 2 3 - - 0.0
09/11:20pm 22.2 25.3 20.2 88 1.3 ENE 4 6 2 3 - - 0.0
09/11:10pm 22.3 25.7 20.1 87 1.4 NE 2 6 1 3 - - 0.0
09/11:00pm 22.3 25.4 20.2 88 1.4 ENE 4 6 2 3 - - 0.0
09/10:50pm 22.5 25.5 20.1 86 1.6 ENE 4 7 2 4 - - 0.0
09/10:40pm 22.6 25.1 19.9 85 1.7 NE 6 7 3 4 - - 0.0
09/10:30pm 22.7 25.2 19.9 84 1.8 NE 6 6 3 3 - - 0.0
09/10:20pm 22.8 25.6 19.7 83 2.0 NE 4 7 2 4 - - 0.0
09/10:10pm 22.8 25.2 19.6 82 2.1 ENE 6 7 3 4 - - 0.0
09/10:00pm 22.8 25.2 19.6 82 2.1 E 6 7 3 4 - - 0.0
09/09:50pm 22.9 25.3 19.6 81 2.1 E 6 6 3 3 - - 0.0
09/09:40pm 23.0 25.3 19.5 80 2.3 E 6 7 3 4 - - 0.0
09/09:30pm 23.1 25.8 19.5 80 2.3 ENE 4 6 2 3 - - 0.0
09/09:20pm 23.2 25.5 19.4 79 2.4 ENE 6 7 3 4 - - 0.0
09/09:10pm 23.2 25.9 19.4 79 2.4 ENE 4 6 2 3 - - 0.0
09/09:00pm 23.3 26.0 19.4 79 2.5 E 4 6 2 3 - - 0.0
09/08:50pm 23.3 25.5 19.2 78 2.6 ENE 6 7 3 4 - - 0.0
09/08:40pm 23.4 25.6 19.3 78 2.6 ENE 6 9 3 5 - - 0.0
09/08:30pm 23.4 25.6 19.2 77 2.7 E 6 9 3 5 - - 0.0
09/08:20pm 23.6 25.8 19.3 77 2.8 ENE 6 7 3 4 - - 0.0
09/08:10pm 23.7 26.2 19.1 75 3.0 NE 4 6 2 3 - - 0.0
09/08:00pm 23.8 25.7 19.0 74 3.1 ENE 7 9 4 5 - - 0.0
09/07:50pm 23.9 26.0 19.0 74 3.1 ENE 6 7 3 4 - - 0.0
09/07:40pm 24.0 26.1 19.0 73 3.2 NE 6 9 3 5 - - 0.0
09/07:30pm 24.1 25.9 18.8 72 3.4 ENE 7 11 4 6 - - 0.0
09/07:20pm 24.4 26.3 18.9 71 3.5 ENE 7 9 4 5 - - 0.0
09/07:10pm 24.6 26.6 18.8 70 3.7 ENE 6 9 3 5 - - 0.0
09/07:00pm 24.8 26.6 18.7 69 3.9 E 7 9 4 5 - - 0.0
09/06:50pm 24.9 26.7 18.7 68 4.0 E 7 11 4 6 - - 0.0
09/06:40pm 25.1 26.9 18.8 68 4.0 ENE 7 11 4 6 - - 0.0
09/06:30pm 25.4 27.2 18.7 66 4.3 ENE 7 11 4 6 - - 0.0
09/06:20pm 25.6 27.4 18.8 66 4.4 E 7 9 4 5 - - 0.0
09/06:10pm 25.8 27.6 18.8 65 4.5 E 7 11 4 6 - - 0.0
09/06:00pm 26.2 28.0 18.7 63 4.8 ENE 7 11 4 6 - - 0.0
09/05:50pm 26.5 28.2 18.6 62 5.1 NE 7 13 4 7 - - 0.0
09/05:40pm 26.8 28.5 18.6 60 5.3 NE 7 11 4 6 - - 0.0
09/05:30pm 26.9 28.3 18.6 60 5.3 ENE 9 13 5 7 - - 0.0
09/05:20pm 27.3 28.2 18.4 58 5.7 ENE 11 11 6 6 - - 0.0
09/05:10pm 27.6 28.9 18.5 57 5.9 E 9 13 5 7 - - 0.0
09/05:00pm 28.2 29.5 18.5 55 6.3 E 9 15 5 8 - - 0.0
09/04:50pm 28.6 30.1 18.1 53 6.7 NE 7 9 4 5 - - 0.0
09/04:40pm 28.9 30.1 18.3 52 6.8 ENE 9 13 5 7 - - 0.0
09/04:30pm 29.0 30.0 17.8 50 7.2 ENE 9 15 5 8 - - 0.0
09/04:20pm 29.2 30.4 18.2 51 7.1 E 9 13 5 7 - - 0.0
09/04:10pm 29.7 30.9 18.2 50 7.4 E 9 11 5 6 - - 0.0
09/04:00pm 29.9 30.8 18.3 49 7.5 ENE 11 15 6 8 - - 0.0
09/03:50pm 30.8 32.2 17.9 46 8.3 ENE 7 13 4 7 - - 0.0
09/03:40pm 30.3 31.4 18.0 47 7.9 E 9 13 5 7 - - 0.0
09/03:30pm 30.4 31.3 17.6 46 8.2 E 9 13 5 7 - - 0.0
09/03:20pm 30.8 31.7 17.6 45 8.5 ENE 9 15 5 8 - - 0.0
09/03:10pm 30.5 31.1 17.6 46 8.3 E 11 11 6 6 - - 0.0
09/03:00pm 31.4 32.8 17.4 43 9.0 NE 6 7 3 4 - - 0.0
09/02:50pm 30.9 31.4 16.6 42 9.1 NE 9 11 5 6 - - 0.0
09/02:40pm 30.8 31.6 17.4 44 8.6 E 9 13 5 7 - - 0.0
09/02:30pm 30.6 32.1 18.0 47 8.1 NE 7 13 4 7 - - 0.0
09/02:20pm 30.7 32.1 17.7 45 8.4 NNE 7 11 4 6 - - 0.0
09/02:10pm 31.3 32.8 17.5 43 8.9 N 6 9 3 5 - - 0.0
09/02:00pm 31.1 32.4 17.5 44 8.7 N 7 9 4 5 - - 0.0
09/01:50pm 31.8 33.1 17.1 41 9.4 N 6 7 3 4 - - 0.0
09/01:40pm 30.7 31.8 16.7 43 8.9 NE 6 9 3 5 - - 0.0
09/01:30pm 30.2 31.2 16.8 44 8.5 E 7 9 4 5 - - 0.0
09/01:20pm 29.6 30.3 17.0 46 8.0 ENE 9 11 5 6 - - 0.0
09/01:10pm 29.8 31.0 17.4 47 7.9 ENE 7 11 4 6 - - 0.0
09/01:00pm 29.9 31.0 17.0 45 8.2 ENE 7 11 4 6 - - 0.0
09/12:50pm 30.0 31.1 16.7 44 8.4 NNE 6 9 3 5 - - 0.0
09/12:40pm 29.5 30.6 16.6 45 8.1 N 6 7 3 4 - - 0.0
09/12:30pm 28.6 29.5 16.7 48 7.5 ESE 7 13 4 7 - - 0.0
09/12:20pm 28.2 29.0 16.4 48 7.4 ESE 7 11 4 6 - - 0.0
09/12:10pm 27.8 28.7 16.6 50 7.0 E 7 11 4 6 - - 0.0
09/12:00pm 27.9 28.8 16.7 50 7.0 E 7 9 4 5 - - 0.0
09/11:50am 27.6 28.5 16.5 50 6.9 ENE 7 11 4 6 - - 0.0
09/11:40am 27.5 28.4 16.5 51 6.9 E 7 7 4 4 - - 0.0
09/11:30am 27.1 27.5 16.4 52 6.7 E 9 13 5 7 - - 0.0
09/11:20am 27.4 28.7 17.0 53 6.5 E 6 9 3 5 - - 0.0
09/11:10am 28.6 29.6 16.3 47 7.7 ENE 6 7 3 4 - - 0.0
09/11:00am 27.3 28.2 16.1 50 7.0 E 6 9 3 5 - - 0.0
09/10:50am 26.7 27.6 16.1 52 6.6 NNW 6 9 3 5 - - 0.0
09/10:40am 27.1 28.5 16.5 52 6.6 SSE 4 7 2 4 - - 0.0
09/10:30am 27.0 27.8 15.8 50 6.9 N 6 7 3 4 - - 0.0
09/10:20am 26.7 27.4 15.7 51 6.8 NW 6 11 3 6 - - 0.0
09/10:10am 26.5 27.7 15.9 52 6.5 NNE 4 6 2 3 - - 0.0
09/10:00am 26.1 27.1 15.4 51 6.5 N 4 6 2 3 - - 0.0
09/09:50am 25.9 26.9 15.4 52 6.4 SW 4 6 2 3 - - 0.0
09/09:40am 25.7 26.8 15.7 54 6.1 ESE 4 4 2 2 - - 0.0
09/09:30am 24.9 26.1 15.0 54 6.0 SSW 2 4 1 2 - - 0.0
09/09:20am 24.1 25.2 15.6 59 5.2 W 4 7 2 4 - - 0.0
09/09:10am 23.7 24.8 15.7 61 4.9 NNW 4 4 2 2 - - 0.0
09/09:00am 23.3 24.4 15.7 62 4.6 W 4 6 2 3 - - 0.0
09/08:50am 22.8 24.1 16.1 66 4.1 WNW 4 4 2 2 - - 0.0
09/08:40am 22.2 23.9 16.2 69 3.7 E 2 4 1 2 - - 0.0
09/08:30am 21.9 23.8 16.6 72 3.2 W 2 4 1 2 - - 0.0
09/08:20am 21.7 23.5 16.5 72 3.2 S 2 2 1 1 - - 0.0
09/08:10am 21.3 23.2 16.8 75 2.8 W 2 6 1 3 - - 0.0
09/08:00am 21.1 22.8 16.3 74 2.9 WSW 2 4 1 2 - - 0.0
09/07:50am 20.7 22.1 16.3 76 2.7 WSW 4 4 2 2 - - 0.0
09/07:40am 20.4 22.1 16.2 77 2.5 SW 2 4 1 2 - - 0.0
09/07:30am 19.9 22.0 16.2 79 2.2 CALM 0 0 0 0 - - 0.0
09/07:20am 19.5 21.6 16.2 81 2.0 CALM 0 0 0 0 - - 0.0
09/07:10am 19.0 21.1 16.2 84 1.7 CALM 0 0 0 0 - - 0.0
09/07:00am 18.5 20.5 16.0 85 1.5 CALM 0 0 0 0 - - 0.0
09/06:50am 18.0 20.0 16.0 88 1.2 CALM 0 0 0 0 - - 0.0
09/06:40am 17.6 19.6 15.9 90 1.0 CALM 0 0 0 0 - - 0.0
09/06:30am 17.2 19.0 15.6 90 0.9 CALM 0 0 0 0 - - 0.0
09/06:20am 17.0 18.9 15.7 92 0.8 CALM 0 0 0 0 - - 0.0
09/06:10am 16.8 18.7 15.7 93 0.7 CALM 0 0 0 0 - - 0.0
09/06:00am 16.7 18.5 15.6 93 0.6 CALM 0 0 0 0 - - 0.0
09/05:50am 16.7 18.6 15.7 94 0.6 CALM 0 0 0 0 - - 0.0
09/05:40am 16.8 18.7 15.7 93 0.7 CALM 0 0 0 0 - - 0.0
09/05:30am 16.9 18.7 15.6 92 0.8 CALM 0 0 0 0 - - 0.0
09/05:20am 17.0 18.9 15.7 92 0.8 CALM 0 0 0 0 - - 0.0
09/05:10am 17.3 19.1 15.5 89 1.1 CALM 0 0 0 0 - - 0.0
09/05:00am 17.4 19.2 15.6 89 1.1 CALM 0 0 0 0 - - 0.0
09/04:50am 17.6 19.5 15.8 89 1.1 CALM 0 0 0 0 - - 0.0
09/04:40am 17.9 19.7 15.6 86 1.4 CALM 0 0 0 0 - - 0.0
09/04:30am 18.2 20.0 15.5 84 1.6 CALM 0 0 0 0 - - 0.0
09/04:20am 18.4 20.2 15.6 84 1.7 CALM 0 0 0 0 - - 0.0
09/04:10am 18.6 20.5 15.7 83 1.7 CALM 0 0 0 0 - - 0.0
09/04:00am 18.9 20.9 16.1 84 1.7 CALM 0 0 0 0 - - 0.0
09/03:50am 19.3 21.3 16.1 82 1.9 CALM 0 0 0 0 - - 0.0
09/03:40am 19.7 21.7 16.0 79 2.2 CALM 0 0 0 0 - - 0.0
09/03:30am 20.2 22.3 16.3 78 2.4 CALM 0 0 0 0 - - 0.0
09/03:20am 20.6 22.7 16.2 76 2.7 CALM 0 0 0 0 - - 0.0
09/03:10am 20.8 22.8 16.0 74 2.9 CALM 0 0 0 0 - - 0.0
09/03:00am 20.8 22.8 16.0 74 2.9 CALM 0 0 0 0 - - 0.0
09/02:50am 20.9 22.9 16.1 74 2.9 CALM 0 0 0 0 - - 0.0
09/02:40am 21.0 23.0 16.0 73 3.0 CALM 0 0 0 0 - - 0.0
09/02:30am 21.0 23.0 16.0 73 3.0 CALM 0 2 0 1 - - 0.0
09/02:20am 21.0 23.0 16.0 73 3.0 CALM 0 2 0 1 - - 0.0
09/02:10am 21.1 22.7 15.9 72 3.1 NNE 2 6 1 3 - - 0.0
09/02:00am 21.1 22.7 16.0 72 3.1 ENE 2 4 1 2 - - 0.0
09/01:50am 21.1 22.7 16.0 72 3.1 E 2 4 1 2 - - 0.0
09/01:40am 21.1 22.3 16.0 72 3.1 NE 4 6 2 3 - - 0.0
09/01:30am 21.2 22.4 16.0 72 3.1 ENE 4 6 2 3 - - 0.0
09/01:20am 21.2 22.5 16.1 72 3.1 ENE 4 7 2 4 - - 0.0
09/01:10am 21.2 22.5 16.1 72 3.1 E 4 6 2 3 - - 0.0
09/01:00am 21.2 22.9 16.3 73 3.0 ENE 2 4 1 2 - - 0.0
09/12:50am 21.2 22.5 16.1 72 3.1 ENE 4 6 2 3 - - 0.0
09/12:40am 21.3 22.6 16.1 72 3.2 E 4 6 2 3 - - 0.0
09/12:30am 21.3 23.0 16.1 72 3.2 ESE 2 4 1 2 - - 0.0
09/12:20am 21.3 23.0 16.2 72 3.1 E 2 4 1 2 - - 0.0
09/12:10am 21.3 23.0 16.2 72 3.1 ENE 2 4 1 2 - - 0.0
09/12:00am 21.3 23.0 16.1 72 3.2 E 2 4 1 2 - - 0.0
 
Date/Time
EDT
Temp
°C
App
Temp
°C
Dew
Point
°C
Rel
Hum
%
Delta-T
°C
Wind Press
QNH
hPa
Press
MSL
hPa
Rain since
9am
mm
Dir  Spd
km/h
Gust
km/h
Spd
kts
Gust
kts
08/11:50pm 21.4 22.7 16.1 72 3.2 E 4 6 2 3 - - 0.0
08/11:40pm 21.4 22.3 16.1 72 3.2 E 6 7 3 4 - - 0.0
08/11:30pm 21.4 22.3 16.0 71 3.3 E 6 7 3 4 - - 0.0
08/11:20pm 21.5 22.4 16.0 71 3.3 E 6 7 3 4 - - 0.0
08/11:10pm 21.5 22.7 15.8 70 3.4 E 4 7 2 4 - - 0.0
08/11:00pm 21.6 22.8 15.9 70 3.5 E 4 6 2 3 - - 0.0
08/10:50pm 21.6 22.8 15.8 69 3.5 E 4 4 2 2 - - 0.0
08/10:40pm 21.6 22.7 15.6 68 3.6 E 4 4 2 2 - - 0.0
08/10:30pm 21.6 22.7 15.6 68 3.6 E 4 4 2 2 - - 0.0
08/10:20pm 21.6 22.7 15.7 69 3.6 ESE 4 7 2 4 - - 0.0
08/10:10pm 21.7 22.8 15.6 68 3.7 E 4 6 2 3 - - 0.0
08/10:00pm 21.7 22.7 15.3 67 3.8 ENE 4 6 2 3 - - 0.0
08/09:50pm 21.7 22.1 15.3 67 3.8 ENE 7 9 4 5 - - 0.0
08/09:40pm 21.7 22.4 15.5 68 3.7 ENE 6 9 3 5 - - 0.0
08/09:30pm 21.7 22.2 15.5 68 3.7 E 7 9 4 5 - - 0.0
08/09:20pm 21.7 22.4 15.6 68 3.7 ENE 6 9 3 5 - - 0.0
08/09:10pm 21.7 22.4 15.7 68 3.6 ENE 6 9 3 5 - - 0.0
08/09:00pm 21.8 22.5 15.7 68 3.7 ENE 6 11 3 6 - - 0.0
08/08:50pm 21.9 22.6 15.6 67 3.8 E 6 9 3 5 - - 0.0
08/08:40pm 21.9 22.5 15.7 68 3.7 E 7 9 4 5 - - 0.0
08/08:30pm 22.1 22.8 15.6 66 3.9 E 6 9 3 5 - - 0.0
08/08:20pm 22.1 22.8 15.7 67 3.9 E 6 7 3 4 - - 0.0
08/08:10pm 22.2 23.3 15.6 66 4.0 E 4 6 2 3 - - 0.0
08/08:00pm 22.2 22.9 15.6 66 4.0 ENE 6 9 3 5 - - 0.0
08/07:50pm 22.4 23.1 15.7 66 4.1 E 6 9 3 5 - - 0.0
08/07:40pm 22.5 23.6 15.7 65 4.1 - 4 6 2 3 - - 0.0
08/07:30pm 22.6 23.3 15.7 65 4.2 E 6 7 3 4 - - 0.0
08/07:20pm 22.8 23.6 15.8 64 4.3 ESE 6 9 3 5 - - 0.0
08/07:10pm 23.0 23.7 15.7 63 4.4 E 6 7 3 4 - - 0.0
08/07:00pm 23.2 24.0 15.8 63 4.5 E 6 7 3 4 - - 0.0
08/06:50pm 23.4 24.2 15.8 62 4.6 ESE 6 7 3 4 - - 0.0
08/06:40pm 23.7 24.4 15.7 61 4.9 E 6 7 3 4 - - 0.0
08/06:30pm 24.0 24.5 15.6 59 5.1 E 7 9 4 5 - - 0.0
08/06:20pm 24.3 25.0 15.7 58 5.2 ESE 6 9 3 5 - - 0.0
08/06:10pm 24.6 25.1 15.5 57 5.5 - 7 11 4 6 - - 0.0
08/06:00pm 25.1 25.7 15.7 56 5.7 E 7 7 4 4 - - 0.0
08/05:50pm 25.3 25.3 15.2 53 6.1 ENE 9 11 5 6 - - 0.0
08/05:40pm 25.6 25.4 15.6 54 6.1 ENE 11 13 6 7 - - 0.0
08/05:30pm 26.0 26.1 15.5 52 6.4 E 9 15 5 8 - - 0.0
08/05:20pm 26.6 26.6 15.3 50 6.9 ENE 9 11 5 6 - - 0.0
08/05:10pm 26.8 26.9 15.6 50 6.9 E 9 11 5 6 - - 0.0
08/05:00pm 27.2 27.4 15.8 49 7.0 E 9 11 5 6 - - 0.0
08/04:50pm 27.3 28.0 16.0 50 7.0 E 7 11 4 6 - - 0.0
08/04:40pm 27.6 27.9 15.9 49 7.2 ENE 9 15 5 8 - - 0.0
08/04:30pm 27.9 28.1 15.8 47 7.5 ENE 9 11 5 6 - - 0.0
08/04:20pm 28.2 28.8 16.7 49 7.2 ESE 9 9 5 5 - - 0.0
08/04:10pm 28.3 28.7 16.2 47 7.5 E 9 11 5 6 - - 0.0
08/04:00pm 28.8 29.2 16.2 46 7.9 ENE 9 11 5 6 - - 0.0
08/03:50pm 29.5 29.6 15.5 42 8.7 ENE 9 11 5 6 - - 0.0
08/03:40pm 29.3 29.6 15.1 42 8.7 ENE 7 11 4 6 - - 0.0
08/03:30pm 29.5 29.9 15.3 42 8.8 ENE 7 11 4 6 - - 0.0
08/03:20pm 29.6 29.9 15.0 41 9.0 ENE 7 13 4 7 - - 0.0
08/03:10pm 29.3 29.1 14.8 41 8.9 ENE 9 11 5 6 - - 0.0
08/03:00pm 29.2 29.0 14.7 41 8.9 ENE 9 11 5 6 - - 0.0
08/02:50pm 29.2 29.3 15.4 43 8.5 E 9 15 5 8 - - 0.0
08/02:40pm 30.0 30.4 15.3 41 9.1 E 7 9 4 5 - - 0.0
08/02:30pm 30.6 30.7 14.5 37 9.9 NNE 7 13 4 7 - - 0.0
08/02:20pm 30.4 31.0 15.3 40 9.4 E 6 7 3 4 - - 0.0
08/02:10pm 30.0 29.9 13.9 37 9.8 E 7 9 4 5 - - 0.0
08/02:00pm 30.1 30.1 14.1 37 9.7 E 7 11 4 6 - - 0.0
08/01:50pm 30.0 30.3 14.6 39 9.4 ENE 6 9 3 5 - - 0.0
08/01:40pm 30.0 30.3 15.1 40 9.2 ENE 7 13 4 7 - - 0.0
08/01:30pm 30.3 30.2 13.2 35 10.3 ENE 6 7 3 4 - - 0.0
08/01:20pm 29.9 29.8 14.0 37 9.6 NE 7 11 4 6 - - 0.0
08/01:10pm 29.6 29.5 13.8 38 9.5 ENE 7 11 4 6 - - 0.0
08/01:00pm 29.9 29.8 14.0 37 9.6 E 7 11 4 6 - - 0.0
08/12:50pm 29.3 29.4 13.9 39 9.3 N 6 9 3 5 - - 0.0
08/12:40pm 29.2 29.2 14.2 40 9.1 ENE 7 9 4 5 - - 0.0
08/12:30pm 29.0 29.0 14.2 40 9.0 ENE 7 11 4 6 - - 0.0
08/12:20pm 28.5 28.7 14.8 43 8.4 NE 7 11 4 6 - - 0.0
08/12:10pm 29.2 29.3 14.0 39 9.2 E 6 11 3 6 - - 0.0
08/12:00pm 28.5 28.3 13.6 40 8.9 S 7 11 4 6 - - 0.0
08/11:50am 28.6 28.7 14.4 41 8.6 E 7 11 4 6 - - 0.0
08/11:40am 28.9 29.2 14.4 41 8.8 NE 6 7 3 4 - - 0.0
08/11:30am 28.3 28.5 14.2 42 8.5 SE 6 9 3 5 - - 0.0
08/11:20am 27.7 27.7 14.3 43 8.1 NNE 7 9 4 5 - - 0.0
08/11:10am 27.6 27.5 13.8 42 8.3 ESE 7 11 4 6 - - 0.0
08/11:00am 27.4 27.7 14.4 45 7.9 NNE 6 9 3 5 - - 0.0
08/10:50am 27.4 27.9 14.9 46 7.6 ENE 6 9 3 5 - - 0.0
08/10:40am 26.8 27.5 15.7 50 6.8 E 6 9 3 5 - - 0.0
08/10:30am 26.3 26.6 14.5 48 7.1 E 6 11 3 6 - - 0.0
08/10:20am 26.6 27.0 14.8 48 7.2 N 6 7 3 4 - - 0.0
08/10:10am 26.2 27.1 16.1 53 6.2 E 6 9 3 5 - - 0.0
08/10:00am 25.9 26.1 14.7 50 6.8 E 7 9 4 5 - - 0.0
08/09:50am 25.8 26.2 14.7 50 6.7 NNE 6 9 3 5 - - 0.0
08/09:40am 25.4 26.0 15.3 53 6.1 E 6 7 3 4 - - 0.0
08/09:30am 24.4 25.1 15.6 58 5.4 ESE 6 9 3 5 - - 0.0
08/09:20am 24.0 24.6 15.7 59 5.1 E 7 11 4 6 - - 0.0
08/09:10am 23.9 24.6 15.5 59 5.1 E 6 9 3 5 - - 0.0
08/09:00am 23.1 23.8 15.7 63 4.5 SE 6 7 3 4 - - 0.0
08/08:50am 22.8 24.0 15.9 65 4.2 SE 4 6 2 3 - - 0.0
08/08:40am 22.8 23.4 15.4 63 4.5 SW 6 7 3 4 - - 0.0
08/08:30am 22.8 24.3 15.7 64 4.3 NNE 2 4 1 2 - - 0.0
08/08:20am 21.9 23.1 15.0 65 4.1 W 2 4 1 2 - - 0.0
08/08:10am 21.4 23.1 15.1 67 3.8 CALM 0 2 0 1 - - 0.0
08/08:00am 20.9 22.4 14.7 67 3.7 CALM 0 0 0 0 - - 0.0
08/07:50am 20.5 21.9 14.5 68 3.5 CALM 0 0 0 0 - - 0.0
08/07:40am 19.4 20.7 14.1 71 3.1 CALM 0 0 0 0 - - 0.0
08/07:30am 18.3 19.6 14.1 76 2.4 CALM 0 0 0 0 - - 0.0
08/07:20am 17.2 18.5 14.0 81 1.8 CALM 0 0 0 0 - - 0.0
08/07:10am 16.0 17.2 13.9 87 1.2 CALM 0 0 0 0 - - 0.0
08/07:00am 15.1 16.2 13.5 90 0.9 CALM 0 0 0 0 - - 0.0
08/06:50am 14.3 15.4 13.4 94 0.5 CALM 0 0 0 0 - - 0.0
08/06:40am 13.6 14.5 12.9 95 0.4 CALM 0 0 0 0 - - 0.0
08/06:30am 13.1 13.9 12.7 97 0.2 CALM 0 0 0 0 - - 0.0
08/06:20am 12.7 13.4 12.3 97 0.2 CALM 0 0 0 0 - - 0.0
08/06:10am 12.6 13.3 12.2 97 0.2 CALM 0 0 0 0 - - 0.0
08/06:00am 12.6 13.3 12.3 98 0.2 CALM 0 0 0 0 - - 0.0
08/05:50am 12.6 13.3 12.3 98 0.2 CALM 0 0 0 0 - - 0.0
08/05:40am 12.4 13.0 12.0 97 0.2 CALM 0 0 0 0 - - 0.0
08/05:30am 12.4 13.0 12.0 97 0.2 CALM 0 0 0 0 - - 0.0
08/05:20am 12.5 13.1 12.0 97 0.3 CALM 0 0 0 0 - - 0.0
08/05:10am 12.5 13.1 11.9 96 0.3 CALM 0 0 0 0 - - 0.0
08/05:00am 12.6 13.2 12.0 96 0.3 CALM 0 0 0 0 - - 0.0
08/04:50am 12.6 13.2 12.0 96 0.3 CALM 0 0 0 0 - - 0.0
08/04:40am 12.5 13.1 11.9 96 0.3 CALM 0 0 0 0 - - 0.0
08/04:30am 12.5 13.1 11.8 95 0.4 CALM 0 0 0 0 - - 0.0
08/04:20am 12.6 13.2 11.9 95 0.4 CALM 0 0 0 0 - - 0.0
08/04:10am 12.7 13.3 11.9 95 0.4 CALM 0 0 0 0 - - 0.0
08/04:00am 12.9 13.6 12.2 95 0.4 CALM 0 0 0 0 - - 0.0
08/03:50am 13.0 13.7 12.2 95 0.4 CALM 0 0 0 0 - - 0.0
08/03:40am 13.1 13.8 12.2 94 0.5 CALM 0 0 0 0 - - 0.0
08/03:30am 13.2 14.0 12.4 95 0.4 CALM 0 0 0 0 - - 0.0
08/03:20am 13.5 14.3 12.6 94 0.5 CALM 0 0 0 0 - - 0.0
08/03:10am 13.5 14.3 12.7 95 0.4 CALM 0 0 0 0 - - 0.0
08/03:00am 13.5 14.3 12.5 94 0.5 CALM 0 0 0 0 - - 0.0
08/02:50am 13.6 14.3 12.3 92 0.7 CALM 0 0 0 0 - - 0.0
08/02:40am 13.8 14.5 12.3 91 0.8 CALM 0 0 0 0 - - 0.0
08/02:30am 13.9 14.6 12.3 90 0.9 CALM 0 0 0 0 - - 0.0
08/02:20am 14.1 14.9 12.7 91 0.8 CALM 0 0 0 0 - - 0.0
08/02:10am 14.2 15.0 12.6 90 0.9 CALM 0 0 0 0 - - 0.0
08/02:00am 14.3 15.2 12.8 91 0.8 CALM 0 0 0 0 - - 0.0
08/01:50am 14.4 15.3 12.8 90 0.9 CALM 0 0 0 0 - - 0.0
08/01:40am 14.6 15.5 12.8 89 1.0 CALM 0 0 0 0 - - 0.0
08/01:30am 14.7 15.5 12.6 87 1.2 CALM 0 0 0 0 - - 0.0
08/01:20am 14.9 15.7 12.7 87 1.2 CALM 0 0 0 0 - - 0.0
08/01:10am 15.1 16.0 12.8 86 1.3 CALM 0 0 0 0 - - 0.0
08/01:00am 15.3 16.2 12.8 85 1.4 CALM 0 0 0 0 - - 0.0
08/12:50am 15.4 16.2 12.6 83 1.6 CALM 0 0 0 0 - - 0.0
08/12:40am 15.5 16.5 13.2 86 1.3 CALM 0 0 0 0 - - 0.0
08/12:30am 15.7 16.7 13.2 85 1.4 CALM 0 0 0 0 - - 0.0
08/12:20am 15.9 16.8 12.8 82 1.7 CALM 0 0 0 0 - - 0.0
08/12:10am 16.1 17.0 13.0 82 1.7 CALM 0 0 0 0 - - 0.0
08/12:00am 16.3 17.2 13.0 81 1.9 CALM 0 0 0 0 - - 0.0
 
Date/Time
EDT
Temp
°C
App
Temp
°C
Dew
Point
°C
Rel
Hum
%
Delta-T
°C
Wind Press
QNH
hPa
Press
MSL
hPa
Rain since
9am
mm
Dir  Spd
km/h
Gust
km/h
Spd
kts
Gust
kts
07/11:50pm 16.4 17.3 12.8 79 2.0 CALM 0 0 0 0 - - 0.0
07/11:40pm 16.6 17.6 13.2 80 1.9 CALM 0 0 0 0 - - 0.0
07/11:30pm 16.9 17.9 13.3 79 2.0 CALM 0 0 0 0 - - 0.0
07/11:20pm 17.1 18.2 13.4 79 2.1 CALM 0 0 0 0 - - 0.0
07/11:10pm 17.2 18.2 13.1 77 2.3 CALM 0 0 0 0 - - 0.0
07/11:00pm 17.4 18.5 13.6 78 2.2 CALM 0 0 0 0 - - 0.0
07/10:50pm 17.6 18.7 13.5 77 2.3 CALM 0 0 0 0 - - 0.0
07/10:40pm 17.8 18.9 13.6 76 2.4 CALM 0 0 0 0 - - 0.0
07/10:30pm 18.0 19.1 13.4 74 2.6 CALM 0 0 0 0 - - 0.0
07/10:20pm 18.2 19.2 13.3 73 2.8 CALM 0 0 0 0 - - 0.0
07/10:10pm 18.4 19.5 13.6 73 2.8 CALM 0 0 0 0 - - 0.0
07/10:00pm 18.8 20.0 13.8 72 2.9 CALM 0 0 0 0 - - 0.0
07/09:50pm 19.1 20.5 14.4 74 2.7 CALM 0 0 0 0 - - 0.0
07/09:40pm 19.5 20.5 13.2 67 3.6 CALM 0 0 0 0 - - 0.0
07/09:30pm 19.9 20.8 13.0 64 3.9 CALM 0 0 0 0 - - 0.0
07/09:20pm 20.5 21.3 12.7 61 4.4 CALM 0 0 0 0 - - 0.0
07/09:10pm 20.8 21.6 12.7 59 4.6 CALM 0 0 0 0 - - 0.0
07/09:00pm 21.1 21.8 12.3 57 5.0 CALM 0 0 0 0 - - 0.0
07/08:50pm 21.4 22.2 12.5 57 5.1 CALM 0 0 0 0 - - 0.0
07/08:40pm 21.8 22.7 12.9 57 5.1 CALM 0 2 0 1 - - 0.0
07/08:30pm 22.1 22.9 12.5 54 5.5 CALM 0 2 0 1 - - 0.0
07/08:20pm 22.3 23.1 12.7 54 5.5 CALM 0 2 0 1 - - 0.0
07/08:10pm 22.7 23.6 13.0 54 5.6 CALM 0 2 0 1 - - 0.0
07/08:00pm 22.9 23.3 12.6 52 5.9 SE 2 4 1 2 - - 0.0
07/07:50pm 23.2 23.7 12.9 52 6.0 E 2 4 1 2 - - 0.0
07/07:40pm 23.5 24.4 12.8 51 6.2 CALM 0 0 0 0 - - 0.0

Other formats

Comma delimited format used in spreadsheet applications
http://www.bom.gov.au/fwo/IDN60801/IDN60801.99754.axf

JavaScript Object Notation format (JSON) in row-major order
http://www.bom.gov.au/fwo/IDN60801/IDN60801.99754.json

Data quality

Most of these data are generated automatically and are frequently updated. Quality checks on data are not normally performed. It is possible for incorrect values to appear. Refer to information at About Latest Weather Observations and please check the disclaimer before using these data.